sensor_id;sensor_type;location;lat;lon;timestamp;temperature;humidity
30206;DHT22;17010;51.306;3.150;2023-05-28T00:00:57;13.30;99.90
30206;DHT22;17010;51.306;3.150;2023-05-28T00:03:24;13.30;99.90
30206;DHT22;17010;51.306;3.150;2023-05-28T00:05:51;13.20;99.90
30206;DHT22;17010;51.306;3.150;2023-05-28T00:08:18;13.20;99.90
30206;DHT22;17010;51.306;3.150;2023-05-28T00:10:45;13.20;99.90
30206;DHT22;17010;51.306;3.150;2023-05-28T00:13:11;13.20;99.90
30206;DHT22;17010;51.306;3.150;2023-05-28T00:15:37;13.20;99.90
30206;DHT22;17010;51.306;3.150;2023-05-28T00:18:04;13.20;99.90
30206;DHT22;17010;51.306;3.150;2023-05-28T00:20:31;13.10;99.90
30206;DHT22;17010;51.306;3.150;2023-05-28T00:22:58;13.10;99.90
30206;DHT22;17010;51.306;3.150;2023-05-28T00:25:24;13.10;99.90
30206;DHT22;17010;51.306;3.150;2023-05-28T00:27:50;13.10;99.90
30206;DHT22;17010;51.306;3.150;2023-05-28T00:30:16;13.10;99.90
30206;DHT22;17010;51.306;3.150;2023-05-28T00:32:42;13.10;99.90
30206;DHT22;17010;51.306;3.150;2023-05-28T00:35:08;13.20;99.90
30206;DHT22;17010;51.306;3.150;2023-05-28T00:37:35;13.10;99.90
30206;DHT22;17010;51.306;3.150;2023-05-28T00:40:01;13.10;99.90
30206;DHT22;17010;51.306;3.150;2023-05-28T00:42:29;13.10;99.90
30206;DHT22;17010;51.306;3.150;2023-05-28T00:44:56;13.10;99.90
30206;DHT22;17010;51.306;3.150;2023-05-28T00:47:22;13.20;99.90
30206;DHT22;17010;51.306;3.150;2023-05-28T00:49:48;13.20;99.90
30206;DHT22;17010;51.306;3.150;2023-05-28T00:52:15;13.10;99.90
30206;DHT22;17010;51.306;3.150;2023-05-28T00:54:42;13.20;99.90
30206;DHT22;17010;51.306;3.150;2023-05-28T00:57:08;13.20;99.90
30206;DHT22;17010;51.306;3.150;2023-05-28T00:59:34;13.20;99.90
30206;DHT22;17010;51.306;3.150;2023-05-28T01:02:01;13.20;99.90
30206;DHT22;17010;51.306;3.150;2023-05-28T01:04:27;13.20;99.90
30206;DHT22;17010;51.306;3.150;2023-05-28T01:07:00;13.20;99.90
30206;DHT22;17010;51.306;3.150;2023-05-28T01:09:26;13.20;99.90
30206;DHT22;17010;51.306;3.150;2023-05-28T01:11:53;13.20;99.90
30206;DHT22;17010;51.306;3.150;2023-05-28T01:14:20;13.20;99.90
30206;DHT22;17010;51.306;3.150;2023-05-28T01:16:46;13.20;99.90
30206;DHT22;17010;51.306;3.150;2023-05-28T01:19:16;13.20;99.90
30206;DHT22;17010;51.306;3.150;2023-05-28T01:21:45;13.20;99.90
30206;DHT22;17010;51.306;3.150;2023-05-28T01:24:12;13.20;99.90
30206;DHT22;17010;51.306;3.150;2023-05-28T01:26:42;13.20;99.90
30206;DHT22;17010;51.306;3.150;2023-05-28T01:29:18;13.20;99.90
30206;DHT22;17010;51.306;3.150;2023-05-28T01:31:45;13.20;99.90
30206;DHT22;17010;51.306;3.150;2023-05-28T01:34:11;13.20;99.90
30206;DHT22;17010;51.306;3.150;2023-05-28T01:36:54;13.30;99.90
30206;DHT22;17010;51.306;3.150;2023-05-28T01:39:22;13.30;99.90
30206;DHT22;17010;51.306;3.150;2023-05-28T01:41:50;13.30;99.90
30206;DHT22;17010;51.306;3.150;2023-05-28T01:44:17;13.30;99.90
30206;DHT22;17010;51.306;3.150;2023-05-28T01:46:47;13.30;99.90
30206;DHT22;17010;51.306;3.150;2023-05-28T01:49:14;13.30;99.90
30206;DHT22;17010;51.306;3.150;2023-05-28T01:51:40;13.30;99.90
30206;DHT22;17010;51.306;3.150;2023-05-28T01:54:06;13.30;99.90
30206;DHT22;17010;51.306;3.150;2023-05-28T01:56:33;13.30;99.90
30206;DHT22;17010;51.306;3.150;2023-05-28T01:58:59;13.30;99.90
30206;DHT22;17010;51.306;3.150;2023-05-28T02:01:28;13.40;99.90
30206;DHT22;17010;51.306;3.150;2023-05-28T02:03:58;13.40;99.90
30206;DHT22;17010;51.306;3.150;2023-05-28T02:06:29;13.30;99.90
30206;DHT22;17010;51.306;3.150;2023-05-28T02:08:55;13.30;99.90
30206;DHT22;17010;51.306;3.150;2023-05-28T02:11:22;13.30;99.90
30206;DHT22;17010;51.306;3.150;2023-05-28T02:13:48;13.20;99.90
30206;DHT22;17010;51.306;3.150;2023-05-28T02:16:15;13.20;99.90
30206;DHT22;17010;51.306;3.150;2023-05-28T02:18:45;13.20;99.90
30206;DHT22;17010;51.306;3.150;2023-05-28T02:21:14;13.30;99.90
30206;DHT22;17010;51.306;3.150;2023-05-28T02:23:46;13.30;99.90
30206;DHT22;17010;51.306;3.150;2023-05-28T02:26:13;13.30;99.90
30206;DHT22;17010;51.306;3.150;2023-05-28T02:28:40;13.30;99.90
30206;DHT22;17010;51.306;3.150;2023-05-28T02:31:10;13.20;99.90
30206;DHT22;17010;51.306;3.150;2023-05-28T02:33:40;13.20;99.90
30206;DHT22;17010;51.306;3.150;2023-05-28T02:36:10;13.20;99.90
30206;DHT22;17010;51.306;3.150;2023-05-28T02:38:37;13.20;99.90
30206;DHT22;17010;51.306;3.150;2023-05-28T02:41:04;13.20;99.90
30206;DHT22;17010;51.306;3.150;2023-05-28T02:43:30;13.20;99.90
30206;DHT22;17010;51.306;3.150;2023-05-28T02:45:56;13.20;99.90
30206;DHT22;17010;51.306;3.150;2023-05-28T02:48:23;13.20;99.90
30206;DHT22;17010;51.306;3.150;2023-05-28T02:50:49;13.20;99.90
30206;DHT22;17010;51.306;3.150;2023-05-28T02:53:17;13.20;99.90
30206;DHT22;17010;51.306;3.150;2023-05-28T02:55:43;13.20;99.90
30206;DHT22;17010;51.306;3.150;2023-05-28T02:58:14;13.20;99.90
30206;DHT22;17010;51.306;3.150;2023-05-28T03:00:41;13.10;99.90
30206;DHT22;17010;51.306;3.150;2023-05-28T03:03:07;13.20;99.90
30206;DHT22;17010;51.306;3.150;2023-05-28T03:05:34;13.20;99.90
30206;DHT22;17010;51.306;3.150;2023-05-28T03:08:01;13.10;99.90
30206;DHT22;17010;51.306;3.150;2023-05-28T03:10:27;13.10;99.90
30206;DHT22;17010;51.306;3.150;2023-05-28T03:12:53;13.10;99.90
30206;DHT22;17010;51.306;3.150;2023-05-28T03:15:20;13.10;99.90
30206;DHT22;17010;51.306;3.150;2023-05-28T03:17:46;13.10;99.90
30206;DHT22;17010;51.306;3.150;2023-05-28T03:20:12;13.10;99.90
30206;DHT22;17010;51.306;3.150;2023-05-28T03:22:39;13.10;99.90
30206;DHT22;17010;51.306;3.150;2023-05-28T03:25:05;13.10;99.90
30206;DHT22;17010;51.306;3.150;2023-05-28T03:27:32;13.10;99.90
30206;DHT22;17010;51.306;3.150;2023-05-28T03:29:58;13.10;99.90
30206;DHT22;17010;51.306;3.150;2023-05-28T03:32:25;13.10;99.90
30206;DHT22;17010;51.306;3.150;2023-05-28T03:34:51;13.10;99.90
30206;DHT22;17010;51.306;3.150;2023-05-28T03:37:17;13.10;99.90
30206;DHT22;17010;51.306;3.150;2023-05-28T03:39:44;13.20;99.90
30206;DHT22;17010;51.306;3.150;2023-05-28T03:42:10;13.20;99.90
30206;DHT22;17010;51.306;3.150;2023-05-28T03:44:36;13.20;99.90
30206;DHT22;17010;51.306;3.150;2023-05-28T03:47:02;13.20;99.90
30206;DHT22;17010;51.306;3.150;2023-05-28T03:49:28;13.20;99.90
30206;DHT22;17010;51.306;3.150;2023-05-28T03:51:55;13.20;99.90
30206;DHT22;17010;51.306;3.150;2023-05-28T03:54:21;13.20;99.90
30206;DHT22;17010;51.306;3.150;2023-05-28T03:56:47;13.20;99.90
30206;DHT22;17010;51.306;3.150;2023-05-28T03:59:13;13.20;99.90
30206;DHT22;17010;51.306;3.150;2023-05-28T04:01:40;13.20;99.90
30206;DHT22;17010;51.306;3.150;2023-05-28T04:04:06;13.20;99.90
30206;DHT22;17010;51.306;3.150;2023-05-28T04:06:33;13.20;99.90
30206;DHT22;17010;51.306;3.150;2023-05-28T04:08:59;13.20;99.90
30206;DHT22;17010;51.306;3.150;2023-05-28T04:11:26;13.20;99.90
30206;DHT22;17010;51.306;3.150;2023-05-28T04:13:54;13.20;99.90
30206;DHT22;17010;51.306;3.150;2023-05-28T04:16:21;13.20;99.90
30206;DHT22;17010;51.306;3.150;2023-05-28T04:18:49;13.20;99.90
30206;DHT22;17010;51.306;3.150;2023-05-28T04:21:16;13.20;99.90
30206;DHT22;17010;51.306;3.150;2023-05-28T04:23:42;13.20;99.90
30206;DHT22;17010;51.306;3.150;2023-05-28T04:26:08;13.20;99.90
30206;DHT22;17010;51.306;3.150;2023-05-28T04:28:35;13.20;99.90
30206;DHT22;17010;51.306;3.150;2023-05-28T04:31:03;13.30;99.90
30206;DHT22;17010;51.306;3.150;2023-05-28T04:33:29;13.30;99.90
30206;DHT22;17010;51.306;3.150;2023-05-28T04:35:57;13.40;99.90
30206;DHT22;17010;51.306;3.150;2023-05-28T04:38:24;13.50;99.90
30206;DHT22;17010;51.306;3.150;2023-05-28T04:40:55;13.40;99.90
30206;DHT22;17010;51.306;3.150;2023-05-28T04:43:22;13.40;99.90
30206;DHT22;17010;51.306;3.150;2023-05-28T04:45:49;13.40;99.90
30206;DHT22;17010;51.306;3.150;2023-05-28T04:48:16;13.50;99.90
30206;DHT22;17010;51.306;3.150;2023-05-28T04:50:42;13.50;99.90
30206;DHT22;17010;51.306;3.150;2023-05-28T04:53:09;13.50;99.90
30206;DHT22;17010;51.306;3.150;2023-05-28T04:55:35;13.60;99.90
30206;DHT22;17010;51.306;3.150;2023-05-28T04:58:01;13.60;99.90
30206;DHT22;17010;51.306;3.150;2023-05-28T05:00:28;13.60;99.90
30206;DHT22;17010;51.306;3.150;2023-05-28T05:02:54;13.70;99.90
30206;DHT22;17010;51.306;3.150;2023-05-28T05:05:20;13.60;99.90
30206;DHT22;17010;51.306;3.150;2023-05-28T05:07:46;13.70;99.90
30206;DHT22;17010;51.306;3.150;2023-05-28T05:10:13;13.70;99.90
30206;DHT22;17010;51.306;3.150;2023-05-28T05:12:39;13.70;99.90
30206;DHT22;17010;51.306;3.150;2023-05-28T05:15:05;13.70;99.90
30206;DHT22;17010;51.306;3.150;2023-05-28T05:17:32;13.90;99.90
30206;DHT22;17010;51.306;3.150;2023-05-28T05:20:00;13.90;99.90
30206;DHT22;17010;51.306;3.150;2023-05-28T05:22:27;14.00;99.90
30206;DHT22;17010;51.306;3.150;2023-05-28T05:24:53;14.10;99.90
30206;DHT22;17010;51.306;3.150;2023-05-28T05:27:19;14.10;99.90
30206;DHT22;17010;51.306;3.150;2023-05-28T05:29:46;14.10;99.90
30206;DHT22;17010;51.306;3.150;2023-05-28T05:32:12;14.20;99.90
30206;DHT22;17010;51.306;3.150;2023-05-28T05:34:38;14.20;99.90
30206;DHT22;17010;51.306;3.150;2023-05-28T05:37:10;14.30;99.90
30206;DHT22;17010;51.306;3.150;2023-05-28T05:39:37;14.20;99.90
30206;DHT22;17010;51.306;3.150;2023-05-28T05:42:05;14.30;99.90
30206;DHT22;17010;51.306;3.150;2023-05-28T05:44:31;14.20;99.90
30206;DHT22;17010;51.306;3.150;2023-05-28T05:46:57;14.30;99.90
30206;DHT22;17010;51.306;3.150;2023-05-28T05:49:23;14.30;99.90
30206;DHT22;17010;51.306;3.150;2023-05-28T05:51:50;14.30;99.90
30206;DHT22;17010;51.306;3.150;2023-05-28T05:54:16;14.30;99.90
30206;DHT22;17010;51.306;3.150;2023-05-28T05:56:42;14.40;99.90
30206;DHT22;17010;51.306;3.150;2023-05-28T05:59:09;14.70;99.90
30206;DHT22;17010;51.306;3.150;2023-05-28T06:01:35;15.00;99.90
30206;DHT22;17010;51.306;3.150;2023-05-28T06:04:01;15.10;99.90
30206;DHT22;17010;51.306;3.150;2023-05-28T06:06:28;15.20;99.90
30206;DHT22;17010;51.306;3.150;2023-05-28T06:08:54;15.40;99.90
30206;DHT22;17010;51.306;3.150;2023-05-28T06:11:20;15.40;99.90
30206;DHT22;17010;51.306;3.150;2023-05-28T06:13:49;15.70;99.90
30206;DHT22;17010;51.306;3.150;2023-05-28T06:16:16;15.80;99.90
30206;DHT22;17010;51.306;3.150;2023-05-28T06:18:43;15.90;99.90
30206;DHT22;17010;51.306;3.150;2023-05-28T06:21:09;16.10;99.90
30206;DHT22;17010;51.306;3.150;2023-05-28T06:23:36;16.30;99.90
30206;DHT22;17010;51.306;3.150;2023-05-28T06:26:03;16.50;99.90
30206;DHT22;17010;51.306;3.150;2023-05-28T06:28:29;16.60;99.90
30206;DHT22;17010;51.306;3.150;2023-05-28T06:30:56;16.70;99.90
30206;DHT22;17010;51.306;3.150;2023-05-28T06:33:28;16.90;99.90
30206;DHT22;17010;51.306;3.150;2023-05-28T06:35:54;17.20;99.90
30206;DHT22;17010;51.306;3.150;2023-05-28T06:38:20;17.20;99.90
30206;DHT22;17010;51.306;3.150;2023-05-28T06:40:47;17.30;99.90
30206;DHT22;17010;51.306;3.150;2023-05-28T06:43:13;17.50;99.90
30206;DHT22;17010;51.306;3.150;2023-05-28T06:45:39;17.50;99.90
30206;DHT22;17010;51.306;3.150;2023-05-28T06:48:06;17.60;99.90
30206;DHT22;17010;51.306;3.150;2023-05-28T06:50:32;17.80;99.90
30206;DHT22;17010;51.306;3.150;2023-05-28T06:52:58;18.10;99.90
30206;DHT22;17010;51.306;3.150;2023-05-28T06:55:24;18.20;99.90
30206;DHT22;17010;51.306;3.150;2023-05-28T06:57:51;18.30;99.90
30206;DHT22;17010;51.306;3.150;2023-05-28T07:00:17;18.40;99.90
30206;DHT22;17010;51.306;3.150;2023-05-28T07:02:46;18.80;99.90
30206;DHT22;17010;51.306;3.150;2023-05-28T07:05:12;18.90;99.90
30206;DHT22;17010;51.306;3.150;2023-05-28T07:07:39;19.10;99.90
30206;DHT22;17010;51.306;3.150;2023-05-28T07:10:05;19.30;99.90
30206;DHT22;17010;51.306;3.150;2023-05-28T07:12:32;20.00;99.90
30206;DHT22;17010;51.306;3.150;2023-05-28T07:14:58;20.80;99.90
30206;DHT22;17010;51.306;3.150;2023-05-28T07:17:24;21.00;99.90
30206;DHT22;17010;51.306;3.150;2023-05-28T07:19:51;21.20;99.90
30206;DHT22;17010;51.306;3.150;2023-05-28T07:22:17;20.60;99.90
30206;DHT22;17010;51.306;3.150;2023-05-28T07:24:43;20.20;99.90
30206;DHT22;17010;51.306;3.150;2023-05-28T07:27:09;19.90;99.90
30206;DHT22;17010;51.306;3.150;2023-05-28T07:29:36;19.30;99.90
30206;DHT22;17010;51.306;3.150;2023-05-28T07:32:02;19.00;99.90
30206;DHT22;17010;51.306;3.150;2023-05-28T07:34:29;18.80;99.90
30206;DHT22;17010;51.306;3.150;2023-05-28T07:36:55;18.90;99.90
30206;DHT22;17010;51.306;3.150;2023-05-28T07:39:21;18.90;99.90
30206;DHT22;17010;51.306;3.150;2023-05-28T07:41:47;18.80;99.90
30206;DHT22;17010;51.306;3.150;2023-05-28T07:44:14;18.80;99.90
30206;DHT22;17010;51.306;3.150;2023-05-28T07:46:43;19.10;99.90
30206;DHT22;17010;51.306;3.150;2023-05-28T07:49:09;19.50;99.90
30206;DHT22;17010;51.306;3.150;2023-05-28T07:51:36;19.50;99.90
30206;DHT22;17010;51.306;3.150;2023-05-28T07:54:03;19.40;99.90
30206;DHT22;17010;51.306;3.150;2023-05-28T07:56:29;19.50;99.90
30206;DHT22;17010;51.306;3.150;2023-05-28T07:58:56;19.30;99.90
30206;DHT22;17010;51.306;3.150;2023-05-28T08:01:22;19.20;99.90
30206;DHT22;17010;51.306;3.150;2023-05-28T08:03:50;19.40;99.90
30206;DHT22;17010;51.306;3.150;2023-05-28T08:06:18;19.50;99.90
30206;DHT22;17010;51.306;3.150;2023-05-28T08:08:46;20.00;99.90
30206;DHT22;17010;51.306;3.150;2023-05-28T08:11:12;20.30;99.90
30206;DHT22;17010;51.306;3.150;2023-05-28T08:13:40;20.20;99.90
30206;DHT22;17010;51.306;3.150;2023-05-28T08:16:09;20.20;99.90
30206;DHT22;17010;51.306;3.150;2023-05-28T08:18:35;20.20;99.90
30206;DHT22;17010;51.306;3.150;2023-05-28T08:21:02;20.50;99.90
30206;DHT22;17010;51.306;3.150;2023-05-28T08:23:28;20.70;99.90
30206;DHT22;17010;51.306;3.150;2023-05-28T08:25:56;21.00;99.90
30206;DHT22;17010;51.306;3.150;2023-05-28T08:28:23;21.00;99.90
30206;DHT22;17010;51.306;3.150;2023-05-28T08:30:49;20.50;99.90
30206;DHT22;17010;51.306;3.150;2023-05-28T08:33:16;20.40;99.90
30206;DHT22;17010;51.306;3.150;2023-05-28T08:35:42;20.10;99.90
30206;DHT22;17010;51.306;3.150;2023-05-28T08:38:08;20.20;99.90
30206;DHT22;17010;51.306;3.150;2023-05-28T08:40:40;20.30;99.90
30206;DHT22;17010;51.306;3.150;2023-05-28T08:43:07;20.10;99.90
30206;DHT22;17010;51.306;3.150;2023-05-28T08:45:35;19.90;99.90
30206;DHT22;17010;51.306;3.150;2023-05-28T08:48:05;19.70;99.90
30206;DHT22;17010;51.306;3.150;2023-05-28T08:50:35;19.70;99.90
30206;DHT22;17010;51.306;3.150;2023-05-28T08:53:03;19.30;99.90
30206;DHT22;17010;51.306;3.150;2023-05-28T08:55:34;19.30;99.90
30206;DHT22;17010;51.306;3.150;2023-05-28T08:58:00;19.50;99.90
30206;DHT22;17010;51.306;3.150;2023-05-28T09:00:26;19.50;99.90
30206;DHT22;17010;51.306;3.150;2023-05-28T09:02:53;19.30;99.90
30206;DHT22;17010;51.306;3.150;2023-05-28T09:05:19;19.20;99.90
30206;DHT22;17010;51.306;3.150;2023-05-28T09:07:45;19.00;99.90
30206;DHT22;17010;51.306;3.150;2023-05-28T09:10:11;18.90;99.90
30206;DHT22;17010;51.306;3.150;2023-05-28T09:12:39;19.10;99.90
30206;DHT22;17010;51.306;3.150;2023-05-28T09:15:07;19.20;99.90
30206;DHT22;17010;51.306;3.150;2023-05-28T09:17:35;19.40;99.90
30206;DHT22;17010;51.306;3.150;2023-05-28T09:20:11;19.80;99.90
30206;DHT22;17010;51.306;3.150;2023-05-28T09:22:38;19.80;99.90
30206;DHT22;17010;51.306;3.150;2023-05-28T09:25:08;19.60;99.90
30206;DHT22;17010;51.306;3.150;2023-05-28T09:27:35;19.40;99.90
30206;DHT22;17010;51.306;3.150;2023-05-28T09:30:07;19.00;99.90
30206;DHT22;17010;51.306;3.150;2023-05-28T09:32:34;19.00;99.90
30206;DHT22;17010;51.306;3.150;2023-05-28T09:35:01;18.70;99.90
30206;DHT22;17010;51.306;3.150;2023-05-28T09:37:30;18.40;99.90
30206;DHT22;17010;51.306;3.150;2023-05-28T09:40:03;18.40;99.90
30206;DHT22;17010;51.306;3.150;2023-05-28T09:42:37;18.70;99.90
30206;DHT22;17010;51.306;3.150;2023-05-28T09:45:10;19.00;99.90
30206;DHT22;17010;51.306;3.150;2023-05-28T09:47:44;19.20;99.90
30206;DHT22;17010;51.306;3.150;2023-05-28T09:50:11;19.30;99.90
30206;DHT22;17010;51.306;3.150;2023-05-28T09:52:42;19.50;99.90
30206;DHT22;17010;51.306;3.150;2023-05-28T09:55:08;19.60;99.90
30206;DHT22;17010;51.306;3.150;2023-05-28T09:57:39;19.60;99.90
30206;DHT22;17010;51.306;3.150;2023-05-28T10:00:07;19.50;99.90
30206;DHT22;17010;51.306;3.150;2023-05-28T10:05:43;19.60;99.90
30206;DHT22;17010;51.306;3.150;2023-05-28T10:08:11;19.80;99.90
30206;DHT22;17010;51.306;3.150;2023-05-28T10:10:39;19.60;99.90
30206;DHT22;17010;51.306;3.150;2023-05-28T10:13:07;19.40;99.90
30206;DHT22;17010;51.306;3.150;2023-05-28T10:15:36;19.50;99.90
30206;DHT22;17010;51.306;3.150;2023-05-28T10:18:06;19.40;99.90
30206;DHT22;17010;51.306;3.150;2023-05-28T10:20:33;19.40;99.90
30206;DHT22;17010;51.306;3.150;2023-05-28T10:22:59;19.50;99.90
30206;DHT22;17010;51.306;3.150;2023-05-28T10:25:25;19.40;99.90
30206;DHT22;17010;51.306;3.150;2023-05-28T10:27:56;19.30;99.90
30206;DHT22;17010;51.306;3.150;2023-05-28T10:30:37;19.40;99.90
30206;DHT22;17010;51.306;3.150;2023-05-28T10:33:09;19.50;99.90
30206;DHT22;17010;51.306;3.150;2023-05-28T10:35:49;19.40;99.90
30206;DHT22;17010;51.306;3.150;2023-05-28T10:38:15;19.30;99.90
30206;DHT22;17010;51.306;3.150;2023-05-28T10:40:42;19.30;99.90
30206;DHT22;17010;51.306;3.150;2023-05-28T10:43:46;19.50;99.90
30206;DHT22;17010;51.306;3.150;2023-05-28T10:46:34;19.90;99.90
30206;DHT22;17010;51.306;3.150;2023-05-28T10:49:10;20.10;99.90
30206;DHT22;17010;51.306;3.150;2023-05-28T10:51:57;20.20;99.90
30206;DHT22;17010;51.306;3.150;2023-05-28T10:57:17;20.00;99.90
30206;DHT22;17010;51.306;3.150;2023-05-28T10:59:58;20.20;99.90
30206;DHT22;17010;51.306;3.150;2023-05-28T11:02:32;20.30;99.90
30206;DHT22;17010;51.306;3.150;2023-05-28T11:05:00;19.70;99.90
30206;DHT22;17010;51.306;3.150;2023-05-28T11:07:41;19.60;99.90
30206;DHT22;17010;51.306;3.150;2023-05-28T11:10:09;19.70;99.90
30206;DHT22;17010;51.306;3.150;2023-05-28T11:12:37;19.80;99.90
30206;DHT22;17010;51.306;3.150;2023-05-28T11:15:05;19.70;99.90
30206;DHT22;17010;51.306;3.150;2023-05-28T11:17:39;19.60;99.90
30206;DHT22;17010;51.306;3.150;2023-05-28T11:20:27;19.40;99.90
30206;DHT22;17010;51.306;3.150;2023-05-28T11:22:54;19.00;99.90
30206;DHT22;17010;51.306;3.150;2023-05-28T11:25:21;18.80;99.90
30206;DHT22;17010;51.306;3.150;2023-05-28T11:27:48;18.90;99.90
30206;DHT22;17010;51.306;3.150;2023-05-28T11:30:17;18.90;99.90
30206;DHT22;17010;51.306;3.150;2023-05-28T11:32:44;19.10;99.90
30206;DHT22;17010;51.306;3.150;2023-05-28T11:35:15;19.10;99.90
30206;DHT22;17010;51.306;3.150;2023-05-28T11:37:43;19.20;99.90
30206;DHT22;17010;51.306;3.150;2023-05-28T11:40:12;19.00;99.90
30206;DHT22;17010;51.306;3.150;2023-05-28T11:42:39;18.70;99.90
30206;DHT22;17010;51.306;3.150;2023-05-28T11:45:07;18.80;99.90
30206;DHT22;17010;51.306;3.150;2023-05-28T11:47:35;19.00;99.90
30206;DHT22;17010;51.306;3.150;2023-05-28T11:50:11;18.70;99.90
30206;DHT22;17010;51.306;3.150;2023-05-28T11:52:38;18.70;99.90
30206;DHT22;17010;51.306;3.150;2023-05-28T11:55:05;18.60;99.90
30206;DHT22;17010;51.306;3.150;2023-05-28T11:57:32;18.60;99.90
30206;DHT22;17010;51.306;3.150;2023-05-28T12:00:11;18.60;99.90
30206;DHT22;17010;51.306;3.150;2023-05-28T12:02:53;18.70;99.90
30206;DHT22;17010;51.306;3.150;2023-05-28T12:05:20;18.70;99.90
30206;DHT22;17010;51.306;3.150;2023-05-28T12:07:49;19.20;99.90
30206;DHT22;17010;51.306;3.150;2023-05-28T12:10:19;19.60;99.90
30206;DHT22;17010;51.306;3.150;2023-05-28T12:12:51;19.70;99.90
30206;DHT22;17010;51.306;3.150;2023-05-28T12:15:21;19.40;99.90
30206;DHT22;17010;51.306;3.150;2023-05-28T12:17:56;19.40;99.90
30206;DHT22;17010;51.306;3.150;2023-05-28T12:23:02;19.00;99.90
30206;DHT22;17010;51.306;3.150;2023-05-28T12:28:10;19.00;99.90
30206;DHT22;17010;51.306;3.150;2023-05-28T12:30:38;18.80;99.90
30206;DHT22;17010;51.306;3.150;2023-05-28T12:33:04;19.00;99.90
30206;DHT22;17010;51.306;3.150;2023-05-28T12:35:31;18.90;99.90
30206;DHT22;17010;51.306;3.150;2023-05-28T12:37:57;18.90;99.90
30206;DHT22;17010;51.306;3.150;2023-05-28T12:40:24;19.00;99.90
30206;DHT22;17010;51.306;3.150;2023-05-28T12:42:50;18.60;99.90
30206;DHT22;17010;51.306;3.150;2023-05-28T12:45:16;18.80;99.90
30206;DHT22;17010;51.306;3.150;2023-05-28T12:47:42;18.90;99.90
30206;DHT22;17010;51.306;3.150;2023-05-28T12:50:09;18.90;99.90
30206;DHT22;17010;51.306;3.150;2023-05-28T12:52:35;18.80;99.90
30206;DHT22;17010;51.306;3.150;2023-05-28T12:55:02;18.70;99.90
30206;DHT22;17010;51.306;3.150;2023-05-28T12:57:29;18.90;99.90
30206;DHT22;17010;51.306;3.150;2023-05-28T12:59:58;19.10;99.90
30206;DHT22;17010;51.306;3.150;2023-05-28T13:02:24;19.20;99.90
30206;DHT22;17010;51.306;3.150;2023-05-28T13:04:50;19.10;99.90
30206;DHT22;17010;51.306;3.150;2023-05-28T13:07:16;18.90;99.90
30206;DHT22;17010;51.306;3.150;2023-05-28T13:09:43;18.70;99.90
30206;DHT22;17010;51.306;3.150;2023-05-28T13:12:09;18.50;99.90
30206;DHT22;17010;51.306;3.150;2023-05-28T13:14:35;18.60;99.90
30206;DHT22;17010;51.306;3.150;2023-05-28T13:17:01;18.60;99.90
30206;DHT22;17010;51.306;3.150;2023-05-28T13:19:28;18.60;99.90
30206;DHT22;17010;51.306;3.150;2023-05-28T13:21:54;18.40;99.90
30206;DHT22;17010;51.306;3.150;2023-05-28T13:24:20;18.30;99.90
30206;DHT22;17010;51.306;3.150;2023-05-28T13:26:47;18.50;99.90
30206;DHT22;17010;51.306;3.150;2023-05-28T13:29:14;18.70;99.90
30206;DHT22;17010;51.306;3.150;2023-05-28T13:31:40;18.70;99.90
30206;DHT22;17010;51.306;3.150;2023-05-28T13:34:06;18.90;99.90
30206;DHT22;17010;51.306;3.150;2023-05-28T13:36:33;18.80;99.90
30206;DHT22;17010;51.306;3.150;2023-05-28T13:39:00;18.90;99.90
30206;DHT22;17010;51.306;3.150;2023-05-28T13:41:26;18.80;99.90
30206;DHT22;17010;51.306;3.150;2023-05-28T13:43:53;18.50;99.90
30206;DHT22;17010;51.306;3.150;2023-05-28T13:46:21;18.40;99.90
30206;DHT22;17010;51.306;3.150;2023-05-28T13:48:47;18.30;99.90
30206;DHT22;17010;51.306;3.150;2023-05-28T13:51:13;18.40;99.90
30206;DHT22;17010;51.306;3.150;2023-05-28T13:53:40;18.50;99.90
30206;DHT22;17010;51.306;3.150;2023-05-28T13:56:06;18.60;99.90
30206;DHT22;17010;51.306;3.150;2023-05-28T13:58:32;18.50;99.90
30206;DHT22;17010;51.306;3.150;2023-05-28T14:00:59;18.20;99.90
30206;DHT22;17010;51.306;3.150;2023-05-28T14:03:26;17.80;99.90
30206;DHT22;17010;51.306;3.150;2023-05-28T14:05:53;17.70;99.90
30206;DHT22;17010;51.306;3.150;2023-05-28T14:08:22;17.80;99.90
30206;DHT22;17010;51.306;3.150;2023-05-28T14:10:49;17.80;99.90
30206;DHT22;17010;51.306;3.150;2023-05-28T14:13:15;17.60;99.90
30206;DHT22;17010;51.306;3.150;2023-05-28T14:15:41;17.60;99.90
30206;DHT22;17010;51.306;3.150;2023-05-28T14:18:07;17.50;99.90
30206;DHT22;17010;51.306;3.150;2023-05-28T14:20:35;17.40;99.90
30206;DHT22;17010;51.306;3.150;2023-05-28T14:23:02;17.50;99.90
30206;DHT22;17010;51.306;3.150;2023-05-28T14:25:29;17.50;99.90
30206;DHT22;17010;51.306;3.150;2023-05-28T14:27:55;17.30;99.90
30206;DHT22;17010;51.306;3.150;2023-05-28T14:30:25;17.30;99.90
30206;DHT22;17010;51.306;3.150;2023-05-28T14:32:52;17.30;99.90
30206;DHT22;17010;51.306;3.150;2023-05-28T14:35:18;17.40;99.90
30206;DHT22;17010;51.306;3.150;2023-05-28T14:37:45;17.40;99.90
30206;DHT22;17010;51.306;3.150;2023-05-28T14:40:11;17.30;99.90
30206;DHT22;17010;51.306;3.150;2023-05-28T14:42:38;17.20;99.90
30206;DHT22;17010;51.306;3.150;2023-05-28T14:45:04;17.20;99.90
30206;DHT22;17010;51.306;3.150;2023-05-28T14:47:31;17.00;99.90
30206;DHT22;17010;51.306;3.150;2023-05-28T14:49:57;16.80;99.90
30206;DHT22;17010;51.306;3.150;2023-05-28T14:52:31;16.80;99.90
30206;DHT22;17010;51.306;3.150;2023-05-28T14:54:58;16.90;99.90
30206;DHT22;17010;51.306;3.150;2023-05-28T14:57:26;16.90;99.90
30206;DHT22;17010;51.306;3.150;2023-05-28T14:59:53;16.70;99.90
30206;DHT22;17010;51.306;3.150;2023-05-28T15:02:19;16.70;99.90
30206;DHT22;17010;51.306;3.150;2023-05-28T15:04:46;16.70;99.90
30206;DHT22;17010;51.306;3.150;2023-05-28T15:07:12;16.80;99.90
30206;DHT22;17010;51.306;3.150;2023-05-28T15:09:39;16.90;99.90
30206;DHT22;17010;51.306;3.150;2023-05-28T15:12:06;16.90;99.90
30206;DHT22;17010;51.306;3.150;2023-05-28T15:14:34;16.80;99.90
30206;DHT22;17010;51.306;3.150;2023-05-28T15:17:02;16.70;99.90
30206;DHT22;17010;51.306;3.150;2023-05-28T15:19:28;16.60;99.90
30206;DHT22;17010;51.306;3.150;2023-05-28T15:21:54;16.60;99.90
30206;DHT22;17010;51.306;3.150;2023-05-28T15:24:21;16.70;99.90
30206;DHT22;17010;51.306;3.150;2023-05-28T15:26:47;16.80;99.90
30206;DHT22;17010;51.306;3.150;2023-05-28T15:29:15;16.80;99.90
30206;DHT22;17010;51.306;3.150;2023-05-28T15:31:46;16.80;99.90
30206;DHT22;17010;51.306;3.150;2023-05-28T15:34:13;16.80;99.90
30206;DHT22;17010;51.306;3.150;2023-05-28T15:36:40;16.90;99.90
30206;DHT22;17010;51.306;3.150;2023-05-28T15:39:06;17.00;99.90
30206;DHT22;17010;51.306;3.150;2023-05-28T15:41:33;17.00;99.90
30206;DHT22;17010;51.306;3.150;2023-05-28T15:44:00;17.10;99.90